createdAt,value
2022-10-05T00:01:24.300Z,1.13
2022-10-05T00:03:50.813Z,1.30
2022-10-05T00:06:17.261Z,1.38
2022-10-05T00:08:43.688Z,1.40
2022-10-05T00:11:10.112Z,1.30
2022-10-05T00:13:36.554Z,1.08
2022-10-05T00:16:03.033Z,1.35
2022-10-05T00:18:29.510Z,1.58
2022-10-05T00:20:55.932Z,1.52
2022-10-05T00:23:22.370Z,1.50
2022-10-05T00:25:48.815Z,1.55
2022-10-05T00:28:15.326Z,1.25
2022-10-05T00:30:41.805Z,1.20
2022-10-05T00:33:08.225Z,1.23
2022-10-05T00:35:34.639Z,1.80
2022-10-05T00:38:01.077Z,1.67
2022-10-05T00:40:27.495Z,1.25
2022-10-05T00:42:53.913Z,1.52
2022-10-05T00:45:20.329Z,1.40
2022-10-05T00:47:46.770Z,1.20
2022-10-05T00:50:13.179Z,1.50
2022-10-05T00:52:39.599Z,1.00
2022-10-05T00:55:06.037Z,1.50
2022-10-05T00:57:32.463Z,1.08
2022-10-05T00:59:58.893Z,1.20
2022-10-05T01:02:25.536Z,0.90
2022-10-05T01:04:52.068Z,1.15
2022-10-05T01:07:18.491Z,1.10
2022-10-05T01:09:44.923Z,0.70
2022-10-05T01:12:11.342Z,1.20
2022-10-05T01:14:37.769Z,1.33
2022-10-05T01:17:05.206Z,1.40
2022-10-05T01:19:31.627Z,1.13
2022-10-05T01:21:58.081Z,1.20
2022-10-05T01:24:24.500Z,1.20
2022-10-05T01:26:50.936Z,1.30
2022-10-05T01:29:17.358Z,1.23
2022-10-05T01:31:43.801Z,0.90
2022-10-05T01:34:11.639Z,1.20
2022-10-05T01:36:38.213Z,1.20
2022-10-05T01:39:04.623Z,1.17
2022-10-05T01:41:31.057Z,1.13
2022-10-05T01:43:57.513Z,0.90
2022-10-05T01:46:23.933Z,1.40
2022-10-05T01:48:50.381Z,1.42
2022-10-05T01:51:16.818Z,1.40
2022-10-05T01:53:43.262Z,1.10
2022-10-05T01:56:09.672Z,1.48
2022-10-05T01:58:36.114Z,1.27
2022-10-05T02:01:02.626Z,1.10
2022-10-05T02:03:29.115Z,1.50
2022-10-05T02:05:55.550Z,1.63
2022-10-05T02:08:21.989Z,1.50
2022-10-05T02:10:48.415Z,1.35
2022-10-05T02:13:14.858Z,1.25
2022-10-05T02:15:41.366Z,1.20
2022-10-05T02:18:07.857Z,1.30
2022-10-05T02:20:34.301Z,1.35
2022-10-05T02:23:00.712Z,2.08
2022-10-05T02:25:27.163Z,1.65
2022-10-05T02:27:53.633Z,1.60
2022-10-05T02:30:20.068Z,1.35
2022-10-05T02:32:46.493Z,1.48
2022-10-05T02:35:12.930Z,1.25
2022-10-05T02:37:39.340Z,1.70
2022-10-05T02:40:05.779Z,1.90
2022-10-05T02:42:32.211Z,1.90
2022-10-05T02:44:58.653Z,1.98
2022-10-05T02:47:25.089Z,1.95
2022-10-05T02:49:51.521Z,2.10
2022-10-05T02:52:17.958Z,1.77
2022-10-05T02:54:44.391Z,1.77
2022-10-05T02:57:10.833Z,1.70
2022-10-05T02:59:37.248Z,1.73
2022-10-05T03:02:03.731Z,1.38
2022-10-05T03:04:30.220Z,1.55
2022-10-05T03:06:56.634Z,1.80
2022-10-05T03:09:23.056Z,1.67
2022-10-05T03:11:49.479Z,1.80
2022-10-05T03:14:15.923Z,2.33
2022-10-05T03:16:42.440Z,1.50
2022-10-05T03:19:08.928Z,1.80
2022-10-05T03:21:35.350Z,1.75
2022-10-05T03:24:01.783Z,1.63
2022-10-05T03:26:28.241Z,1.63
2022-10-05T03:28:54.670Z,1.92
2022-10-05T03:31:21.182Z,2.20
2022-10-05T03:33:47.653Z,1.90
2022-10-05T03:36:14.079Z,2.53
2022-10-05T03:38:40.485Z,2.40
2022-10-05T03:41:06.917Z,2.03
2022-10-05T03:43:33.355Z,2.10
2022-10-05T03:45:59.833Z,2.85
2022-10-05T03:48:26.251Z,2.20
2022-10-05T03:50:52.680Z,1.83
2022-10-05T03:53:19.115Z,2.00
2022-10-05T03:55:45.557Z,2.70
2022-10-05T03:58:12.014Z,2.25
2022-10-05T04:00:38.436Z,2.90
2022-10-05T04:03:04.868Z,1.98
2022-10-05T04:05:31.295Z,1.98
2022-10-05T04:07:57.733Z,1.80
2022-10-05T04:10:24.156Z,1.48
2022-10-05T04:12:50.597Z,1.90
2022-10-05T04:15:19.003Z,1.60
2022-10-05T04:17:45.639Z,2.00
2022-10-05T04:20:12.077Z,1.95
2022-10-05T04:22:38.499Z,2.25
2022-10-05T04:25:04.939Z,2.00
2022-10-05T04:27:31.364Z,1.95
2022-10-05T04:29:57.796Z,1.80
2022-10-05T04:32:24.221Z,1.83
2022-10-05T04:34:50.648Z,1.60
2022-10-05T04:37:17.077Z,2.17
2022-10-05T04:39:43.565Z,1.60
2022-10-05T04:42:09.985Z,1.45
2022-10-05T04:44:36.407Z,1.50
2022-10-05T04:47:02.891Z,1.70
2022-10-05T04:49:29.387Z,2.13
2022-10-05T04:51:55.810Z,2.00
2022-10-05T04:54:22.232Z,2.10
2022-10-05T04:56:49.001Z,2.03
2022-10-05T04:59:15.611Z,1.63
2022-10-05T05:01:42.043Z,1.90
2022-10-05T05:04:08.515Z,1.70
2022-10-05T05:06:35.005Z,1.50
2022-10-05T05:09:01.442Z,1.23
2022-10-05T05:11:27.878Z,1.83
2022-10-05T05:13:54.322Z,1.70
2022-10-05T05:16:20.842Z,1.75
2022-10-05T05:18:47.312Z,1.83
2022-10-05T05:21:13.748Z,1.60
2022-10-05T05:23:40.184Z,1.60
2022-10-05T05:26:06.607Z,1.70
2022-10-05T05:28:33.064Z,1.52
2022-10-05T05:30:59.563Z,1.70
2022-10-05T05:33:26.039Z,1.50
2022-10-05T05:35:52.463Z,1.33
2022-10-05T05:38:18.904Z,1.40
2022-10-05T05:40:45.334Z,1.48
2022-10-05T05:43:11.767Z,1.40
2022-10-05T05:45:38.197Z,1.42
2022-10-05T05:48:04.616Z,2.25
2022-10-05T05:50:31.044Z,2.13
2022-10-05T05:52:57.469Z,1.65
2022-10-05T05:55:29.035Z,1.80
2022-10-05T05:57:56.446Z,2.10
2022-10-05T06:00:22.883Z,1.70
2022-10-05T06:02:49.371Z,1.50
2022-10-05T06:05:15.872Z,1.90
2022-10-05T06:07:42.313Z,1.92
2022-10-05T06:10:08.765Z,1.50
2022-10-05T06:12:35.202Z,1.83
2022-10-05T06:15:01.665Z,1.95
2022-10-05T06:17:28.090Z,2.60
2022-10-05T06:19:54.501Z,2.17
2022-10-05T06:22:20.945Z,2.50
2022-10-05T06:24:47.370Z,2.33
2022-10-05T06:27:13.801Z,2.45
2022-10-05T06:29:40.226Z,2.42
2022-10-05T06:32:06.750Z,2.05
2022-10-05T06:34:33.214Z,2.45
2022-10-05T06:36:59.671Z,2.38
2022-10-05T06:39:26.092Z,1.92
2022-10-05T06:41:52.532Z,2.13
2022-10-05T06:44:18.968Z,2.25
2022-10-05T06:46:45.655Z,1.98
2022-10-05T06:49:12.191Z,2.70
2022-10-05T06:51:38.618Z,2.10
2022-10-05T06:54:05.049Z,3.00
2022-10-05T06:56:31.498Z,2.65
2022-10-05T06:58:57.955Z,2.00
2022-10-05T07:01:24.463Z,1.88
2022-10-05T07:03:50.893Z,2.10
2022-10-05T07:06:17.315Z,2.20
2022-10-05T07:08:43.732Z,2.13
2022-10-05T07:11:10.169Z,2.08
2022-10-05T07:13:36.580Z,2.72
2022-10-05T07:16:03.066Z,2.10
2022-10-05T07:18:29.528Z,2.17
2022-10-05T07:20:56.047Z,1.50
2022-10-05T07:23:22.457Z,1.80
2022-10-05T07:25:48.881Z,2.03
2022-10-05T07:28:15.373Z,1.90
2022-10-05T07:30:41.902Z,1.88
2022-10-05T07:33:08.345Z,1.70
2022-10-05T07:35:34.766Z,1.30
2022-10-05T07:38:01.194Z,1.40
2022-10-05T07:40:27.612Z,1.95
2022-10-05T07:42:54.073Z,1.85
2022-10-05T07:45:20.490Z,1.80
2022-10-05T07:47:46.916Z,2.22
2022-10-05T07:50:13.358Z,1.70
2022-10-05T07:52:39.787Z,1.73
2022-10-05T07:55:06.224Z,1.50
2022-10-05T07:57:32.653Z,1.70
2022-10-05T07:59:59.096Z,1.77
2022-10-05T08:02:25.644Z,1.50
2022-10-05T08:04:52.172Z,1.33
2022-10-05T08:07:18.632Z,1.30
2022-10-05T08:09:45.091Z,1.48
2022-10-05T08:12:11.545Z,1.63
2022-10-05T08:14:37.978Z,1.60
2022-10-05T08:17:04.425Z,1.70
2022-10-05T08:19:30.842Z,1.50
2022-10-05T08:21:57.287Z,1.33
2022-10-05T08:24:23.710Z,1.40
2022-10-05T08:26:50.140Z,1.38
2022-10-05T08:29:16.571Z,1.50
2022-10-05T08:31:43.015Z,1.60
2022-10-05T08:34:09.442Z,1.50
2022-10-05T08:36:35.859Z,1.33
2022-10-05T08:39:02.290Z,1.38
2022-10-05T08:41:28.708Z,1.90
2022-10-05T08:43:55.143Z,1.42
2022-10-05T08:46:21.658Z,1.50
2022-10-05T08:48:48.125Z,1.50
2022-10-05T08:51:14.551Z,1.40
2022-10-05T08:53:41.007Z,1.65
2022-10-05T08:56:07.447Z,1.40
2022-10-05T08:58:33.880Z,1.50
2022-10-05T09:01:00.355Z,1.30
2022-10-05T09:03:29.858Z,1.80
2022-10-05T09:05:58.617Z,1.75
2022-10-05T09:08:25.047Z,1.70
2022-10-05T09:10:51.499Z,1.45
2022-10-05T09:13:17.925Z,1.80
2022-10-05T09:15:44.409Z,1.63
2022-10-05T09:18:10.877Z,1.30
2022-10-05T09:20:37.328Z,1.52
2022-10-05T09:23:03.765Z,1.50
2022-10-05T09:25:30.208Z,1.40
2022-10-05T09:27:56.683Z,1.25
2022-10-05T09:30:23.143Z,1.40
2022-10-05T09:32:49.578Z,1.38
2022-10-05T09:35:16.001Z,1.25
2022-10-05T09:37:42.436Z,1.60
2022-10-05T09:40:08.871Z,1.20
2022-10-05T09:42:35.293Z,1.15
2022-10-05T09:45:01.719Z,1.60
2022-10-05T09:47:28.163Z,1.40
2022-10-05T09:49:54.603Z,1.42
2022-10-05T09:52:21.038Z,1.45
2022-10-05T09:54:47.476Z,1.50
2022-10-05T09:57:13.918Z,1.33
2022-10-05T09:59:40.349Z,1.30
2022-10-05T10:02:06.854Z,1.58
2022-10-05T10:04:33.344Z,1.40
2022-10-05T10:06:59.780Z,1.58
2022-10-05T10:09:26.214Z,1.35
2022-10-05T10:11:52.648Z,1.63
2022-10-05T10:14:19.051Z,1.40
2022-10-05T10:16:45.478Z,1.60
2022-10-05T10:19:11.926Z,1.42
2022-10-05T10:21:38.346Z,1.40
2022-10-05T10:24:04.778Z,1.67
2022-10-05T10:26:31.202Z,1.60
2022-10-05T10:28:57.632Z,1.45
2022-10-05T10:31:24.111Z,1.67
2022-10-05T10:33:50.570Z,1.50
2022-10-05T10:36:17.013Z,1.30
2022-10-05T10:38:43.453Z,2.08
2022-10-05T10:41:09.872Z,1.48
2022-10-05T10:43:36.306Z,1.17
2022-10-05T10:46:02.795Z,1.85
2022-10-05T10:48:29.287Z,1.58
2022-10-05T10:50:55.724Z,1.65
2022-10-05T10:53:22.158Z,1.40
2022-10-05T10:55:48.583Z,1.50
2022-10-05T10:58:16.262Z,1.17
2022-10-05T11:00:42.882Z,1.60
2022-10-05T11:03:09.366Z,1.27
2022-10-05T11:05:35.840Z,1.20
2022-10-05T11:08:02.256Z,1.13
2022-10-05T11:10:28.682Z,1.48
2022-10-05T11:12:55.118Z,1.33
2022-10-05T11:15:21.536Z,1.13
2022-10-05T11:17:47.966Z,1.50
2022-10-05T11:20:14.372Z,1.50
2022-10-05T11:22:40.809Z,1.40
2022-10-05T11:25:07.235Z,0.95
2022-10-05T11:27:33.669Z,1.27
2022-10-05T11:30:00.129Z,1.27
2022-10-05T11:32:26.603Z,1.30
2022-10-05T11:34:53.049Z,1.50
2022-10-05T11:37:19.493Z,1.38
2022-10-05T11:39:45.913Z,1.42
2022-10-05T11:42:12.328Z,1.67
2022-10-05T11:44:38.761Z,1.30
2022-10-05T11:47:05.183Z,1.00
2022-10-05T11:49:31.605Z,1.20
2022-10-05T11:51:58.034Z,1.20
2022-10-05T11:54:24.443Z,1.27
2022-10-05T11:56:53.919Z,1.70
2022-10-05T11:59:21.254Z,1.20
2022-10-05T12:01:47.795Z,1.00
2022-10-05T12:04:14.330Z,1.30
2022-10-05T12:06:40.828Z,1.10
2022-10-05T12:09:07.244Z,1.10
2022-10-05T12:11:33.672Z,1.00
2022-10-05T12:14:00.125Z,0.80
2022-10-05T12:16:26.591Z,1.10
2022-10-05T12:18:53.052Z,1.25
2022-10-05T12:21:19.500Z,0.80
2022-10-05T12:23:45.933Z,0.80
2022-10-05T12:26:12.353Z,1.10
2022-10-05T12:28:38.821Z,1.00
2022-10-05T12:31:05.350Z,1.00
2022-10-05T12:33:31.840Z,1.20
2022-10-05T12:35:58.251Z,0.90
2022-10-05T12:38:24.688Z,1.10
2022-10-05T12:40:51.145Z,1.10
2022-10-05T12:43:17.561Z,1.00
2022-10-05T12:45:44.019Z,0.63
2022-10-05T12:48:10.495Z,0.65
2022-10-05T12:50:36.931Z,1.30
2022-10-05T12:53:03.350Z,1.35
2022-10-05T12:55:30.096Z,1.20
2022-10-05T12:57:56.564Z,1.10
2022-10-05T13:00:23.568Z,1.30
2022-10-05T13:02:50.115Z,1.20
2022-10-05T13:05:16.552Z,1.10
2022-10-05T13:07:42.970Z,0.77
2022-10-05T13:10:09.407Z,0.57
2022-10-05T13:12:35.835Z,1.40
2022-10-05T13:15:02.263Z,1.10
2022-10-05T13:17:28.693Z,0.90
2022-10-05T13:19:55.301Z,1.20
2022-10-05T13:22:21.772Z,0.85
2022-10-05T13:24:48.211Z,0.80
2022-10-05T13:27:14.662Z,1.20
2022-10-05T13:29:41.084Z,0.80
2022-10-05T13:32:07.537Z,1.20
2022-10-05T13:34:33.960Z,0.90
2022-10-05T13:37:00.369Z,1.50
2022-10-05T13:39:26.802Z,1.20
2022-10-05T13:41:53.229Z,1.13
2022-10-05T13:44:19.659Z,1.00
2022-10-05T13:46:46.084Z,1.27
2022-10-05T13:49:12.519Z,0.70
2022-10-05T13:51:38.945Z,1.20
2022-10-05T13:54:05.393Z,1.20
2022-10-05T13:56:31.825Z,1.40
2022-10-05T13:58:58.250Z,1.00
2022-10-05T14:01:24.694Z,0.75
2022-10-05T14:03:51.130Z,0.90
2022-10-05T14:06:17.587Z,0.68
2022-10-05T14:08:44.015Z,0.70
2022-10-05T14:11:10.453Z,0.70
2022-10-05T14:13:36.870Z,0.40
2022-10-05T14:16:03.321Z,0.65
2022-10-05T14:18:29.786Z,0.70
2022-10-05T14:20:56.233Z,0.50
2022-10-05T14:23:22.673Z,0.68
2022-10-05T14:25:49.388Z,0.90
2022-10-05T14:28:15.850Z,0.85
2022-10-05T14:30:42.314Z,0.75
2022-10-05T14:33:08.757Z,0.85
2022-10-05T14:35:35.196Z,0.70
2022-10-05T14:38:01.626Z,1.05
2022-10-05T14:40:28.078Z,1.00
2022-10-05T14:42:54.528Z,0.63
2022-10-05T14:45:20.953Z,0.90
2022-10-05T14:47:47.394Z,0.80
2022-10-05T14:50:13.813Z,0.85
2022-10-05T14:52:40.250Z,0.60
2022-10-05T14:55:06.660Z,0.60
2022-10-05T14:57:33.092Z,0.68
2022-10-05T14:59:59.512Z,0.70
2022-10-05T15:02:25.972Z,0.80
2022-10-05T15:04:52.462Z,0.70
2022-10-05T15:07:18.905Z,1.10
2022-10-05T15:09:45.347Z,0.52
2022-10-05T15:12:11.787Z,0.80
2022-10-05T15:14:38.234Z,0.90
2022-10-05T15:17:04.723Z,0.70
2022-10-05T15:19:31.218Z,0.90
2022-10-05T15:21:57.634Z,0.60
2022-10-05T15:24:24.056Z,0.70
2022-10-05T15:26:50.487Z,0.70
2022-10-05T15:29:16.933Z,0.90
2022-10-05T15:31:43.359Z,1.02
2022-10-05T15:34:09.797Z,0.90
2022-10-05T15:36:36.249Z,0.80
2022-10-05T15:39:02.677Z,1.13
2022-10-05T15:41:29.108Z,1.00
2022-10-05T15:43:55.546Z,1.00
2022-10-05T15:46:22.068Z,1.00
2022-10-05T15:48:48.573Z,0.90
2022-10-05T15:51:15.032Z,1.27
2022-10-05T15:53:41.448Z,1.20
2022-10-05T15:56:07.879Z,1.33
2022-10-05T15:58:34.333Z,1.33
2022-10-05T16:01:00.763Z,1.38
2022-10-05T16:03:27.227Z,1.50
2022-10-05T16:05:53.662Z,1.77
2022-10-05T16:08:20.280Z,1.70
2022-10-05T16:10:46.854Z,1.05
2022-10-05T16:13:13.299Z,1.30
2022-10-05T16:15:39.737Z,1.77
2022-10-05T16:18:06.158Z,1.40
2022-10-05T16:20:32.584Z,1.42
2022-10-05T16:22:59.005Z,1.27
2022-10-05T16:25:25.449Z,1.38
2022-10-05T16:27:51.874Z,0.80
2022-10-05T16:30:18.329Z,0.90
2022-10-05T16:32:44.767Z,1.00
2022-10-05T16:35:11.218Z,0.75
2022-10-05T16:37:37.658Z,0.70
2022-10-05T16:40:04.115Z,1.30
2022-10-05T16:42:30.610Z,0.70
2022-10-05T16:44:57.024Z,0.80
2022-10-05T16:47:27.287Z,0.90
2022-10-05T16:49:54.106Z,1.40
2022-10-05T16:52:20.533Z,1.20
2022-10-05T16:54:48.068Z,1.10
2022-10-05T16:57:14.795Z,1.10
2022-10-05T16:59:41.231Z,1.05
2022-10-05T17:02:07.738Z,1.20
2022-10-05T17:04:34.220Z,0.98
2022-10-05T17:07:00.675Z,1.05
2022-10-05T17:09:27.117Z,0.90
2022-10-05T17:11:53.560Z,1.10
2022-10-05T17:14:19.992Z,1.00
2022-10-05T17:16:46.409Z,0.95
2022-10-05T17:19:12.858Z,1.58
2022-10-05T17:21:39.275Z,1.20
2022-10-05T17:24:05.710Z,1.33
2022-10-05T17:26:32.141Z,1.00
2022-10-05T17:28:58.590Z,1.10
2022-10-05T17:31:25.060Z,0.95
2022-10-05T17:33:51.550Z,0.90
2022-10-05T17:36:18.009Z,1.00
2022-10-05T17:38:44.431Z,0.98
2022-10-05T17:41:10.857Z,0.80
2022-10-05T17:43:37.293Z,0.55
2022-10-05T17:46:03.805Z,0.70
2022-10-05T17:48:30.257Z,0.90
2022-10-05T17:50:56.710Z,0.73
2022-10-05T17:53:23.136Z,0.98
2022-10-05T17:55:49.570Z,0.70
2022-10-05T17:58:15.997Z,0.75
2022-10-05T18:00:42.418Z,0.60
2022-10-05T18:03:08.931Z,0.60
2022-10-05T18:05:35.355Z,0.68
2022-10-05T18:08:01.790Z,0.73
2022-10-05T18:10:28.227Z,0.55
2022-10-05T18:12:54.678Z,0.90
2022-10-05T18:15:21.118Z,0.88
2022-10-05T18:17:47.544Z,0.85
2022-10-05T18:20:13.973Z,0.80
2022-10-05T18:22:40.411Z,0.90
2022-10-05T18:25:06.835Z,0.60
2022-10-05T18:27:33.259Z,0.70
2022-10-05T18:29:59.677Z,0.50
2022-10-05T18:32:26.106Z,0.80
2022-10-05T18:34:52.542Z,0.90
2022-10-05T18:37:18.960Z,0.80
2022-10-05T18:39:45.397Z,1.00
2022-10-05T18:42:11.808Z,0.70
2022-10-05T18:44:38.237Z,0.90
2022-10-05T18:47:04.644Z,0.70
2022-10-05T18:49:31.084Z,0.70
2022-10-05T18:51:57.506Z,0.68
2022-10-05T18:54:23.942Z,0.80
2022-10-05T18:56:50.365Z,1.20
2022-10-05T18:59:16.806Z,0.60
2022-10-05T19:01:43.355Z,0.88
2022-10-05T19:04:09.902Z,1.15
2022-10-05T19:06:36.351Z,0.70
2022-10-05T19:09:02.791Z,0.82
2022-10-05T19:11:29.248Z,0.98
2022-10-05T19:13:55.652Z,0.80
2022-10-05T19:16:22.170Z,0.88
2022-10-05T19:18:48.623Z,1.23
2022-10-05T19:21:15.058Z,1.00
2022-10-05T19:23:41.488Z,0.85
2022-10-05T19:26:07.936Z,0.90
2022-10-05T19:28:34.433Z,1.48
2022-10-05T19:31:00.986Z,0.90
2022-10-05T19:33:27.456Z,0.98
2022-10-05T19:35:53.878Z,0.90
2022-10-05T19:38:20.454Z,0.90
2022-10-05T19:40:46.923Z,0.80
2022-10-05T19:43:13.361Z,0.80
2022-10-05T19:45:39.788Z,1.20
2022-10-05T19:48:06.216Z,1.40
2022-10-05T19:50:32.628Z,1.20
2022-10-05T19:52:59.048Z,0.80
2022-10-05T19:55:25.469Z,1.10
2022-10-05T19:57:51.904Z,1.20
2022-10-05T20:00:18.317Z,1.38
2022-10-05T20:02:44.783Z,1.00
2022-10-05T20:05:11.227Z,1.52
2022-10-05T20:07:37.646Z,1.50
2022-10-05T20:10:04.082Z,1.40
2022-10-05T20:12:30.491Z,1.40
2022-10-05T20:14:59.281Z,1.35
2022-10-05T20:17:25.889Z,1.52
2022-10-05T20:19:52.322Z,1.45
2022-10-05T20:22:18.745Z,1.65
2022-10-05T20:24:45.177Z,1.50
2022-10-05T20:27:15.743Z,1.60
2022-10-05T20:29:42.425Z,1.38
2022-10-05T20:32:08.874Z,1.38
2022-10-05T20:34:35.309Z,1.13
2022-10-05T20:37:01.745Z,1.13
2022-10-05T20:39:28.176Z,1.45
2022-10-05T20:41:54.601Z,1.38
2022-10-05T20:44:21.040Z,1.70
2022-10-05T20:46:47.553Z,0.98
2022-10-05T20:49:13.997Z,0.80
2022-10-05T20:51:40.455Z,0.60
2022-10-05T20:54:06.885Z,0.55
2022-10-05T20:56:33.328Z,0.60
2022-10-05T20:58:59.750Z,0.70
2022-10-05T21:01:26.305Z,0.60
2022-10-05T21:03:52.781Z,0.40
2022-10-05T21:06:19.208Z,0.35
2022-10-05T21:08:45.630Z,0.40
2022-10-05T21:11:12.067Z,0.60
2022-10-05T21:13:38.488Z,0.52
2022-10-05T21:16:04.985Z,0.60
2022-10-05T21:18:31.755Z,0.50
2022-10-05T21:21:02.069Z,0.60
2022-10-05T21:23:28.849Z,0.52
2022-10-05T21:25:55.297Z,0.38
2022-10-05T21:28:21.762Z,0.30
2022-10-05T21:30:48.236Z,0.50
2022-10-05T21:33:14.659Z,0.38
2022-10-05T21:35:41.099Z,0.50
2022-10-05T21:38:07.510Z,0.57
2022-10-05T21:40:33.931Z,0.73
2022-10-05T21:43:00.352Z,0.50
2022-10-05T21:45:26.810Z,0.57
2022-10-05T21:47:53.265Z,0.40
2022-10-05T21:50:19.688Z,0.68
2022-10-05T21:52:46.261Z,0.52
2022-10-05T21:55:12.688Z,0.60
2022-10-05T21:57:39.221Z,0.50
2022-10-05T22:00:05.664Z,0.50
2022-10-05T22:02:32.109Z,0.40
2022-10-05T22:04:58.543Z,0.60
2022-10-05T22:07:24.977Z,0.50
2022-10-05T22:09:51.414Z,0.30
2022-10-05T22:12:17.851Z,0.30
2022-10-05T22:14:44.272Z,0.45
2022-10-05T22:17:10.703Z,0.40
2022-10-05T22:19:37.143Z,0.32
2022-10-05T22:22:03.579Z,0.47
2022-10-05T22:24:30.009Z,0.82
2022-10-05T22:26:56.461Z,0.40
2022-10-05T22:29:22.880Z,0.40
2022-10-05T22:31:49.506Z,0.30
2022-10-05T22:34:16.063Z,0.50
2022-10-05T22:36:42.494Z,0.35
2022-10-05T22:39:08.917Z,0.15
2022-10-05T22:41:35.365Z,0.45
2022-10-05T22:44:01.800Z,0.40
2022-10-05T22:46:28.281Z,0.30
2022-10-05T22:48:54.765Z,0.30
2022-10-05T22:51:21.204Z,0.35
2022-10-05T22:53:47.623Z,0.20
2022-10-05T22:56:14.053Z,0.28
2022-10-05T22:58:40.477Z,0.20
2022-10-05T23:01:06.949Z,0.28
2022-10-05T23:03:33.425Z,0.28
2022-10-05T23:05:59.862Z,0.22
2022-10-05T23:08:26.630Z,0.38
2022-10-05T23:10:53.404Z,0.30
2022-10-05T23:13:19.853Z,0.20
2022-10-05T23:15:46.289Z,0.30
2022-10-05T23:18:12.740Z,0.28
2022-10-05T23:20:39.160Z,0.38
2022-10-05T23:23:05.599Z,0.75
2022-10-05T23:25:32.038Z,0.20
2022-10-05T23:27:58.532Z,0.40
2022-10-05T23:30:25.096Z,0.30
2022-10-05T23:32:51.624Z,0.75
2022-10-05T23:35:18.049Z,0.30
2022-10-05T23:37:44.487Z,0.20
2022-10-05T23:40:10.925Z,0.20
2022-10-05T23:42:37.376Z,0.50
2022-10-05T23:45:03.821Z,0.90
2022-10-05T23:47:30.266Z,0.40
2022-10-05T23:49:56.783Z,0.50
2022-10-05T23:52:23.222Z,0.73
2022-10-05T23:54:49.660Z,0.55
2022-10-05T23:57:16.092Z,0.60
2022-10-05T23:59:42.507Z,0.43
